NCAR-RAP Real-Time Weather Data

Output produced by METARs form (01 December 2020  17:23 UTC)
found at http://weather.rap.ucar.edu/surface/
 
KOMA 011652Z 15011KT 10SM CLR 03/M07 A3006 RMK AO2 SLP188 T00281072
KOMA 011552Z 15012KT 10SM CLR 00/M08 A3005 RMK AO2 SLP187 T00001078
KOMA 011452Z 15009KT 10SM CLR M03/M08 A3004 RMK AO2 SLP183 T10281083 51004
KOMA 011352Z 15009KT 10SM CLR M06/M09 A3003 RMK AO2 SLP183 T10561094
KOMA 011252Z 15005KT 10SM CLR M06/M10 A3003 RMK AO2 SLP183 T10611100
KOMA 011152Z 15004KT 10SM CLR M06/M10 A3002 RMK AO2 SLP179 T10611100 11033 21072 58011
KOMA 011052Z 20003KT 10SM CLR M06/M10 A3004 RMK AO2 SLP182 T10561100
KOMA 010952Z 00000KT 10SM CLR M06/M11 A3004 RMK AO2 SLP183 T10561106
KOMA 010852Z 17003KT 10SM CLR M06/M10 A3006 RMK AO2 SLP188 T10561100 55008
KOMA 010752Z 17004KT 10SM CLR M04/M09 A3005 RMK AO2 SLP186 T10391089
KOMA 010652Z 17007KT 10SM CLR M04/M09 A3007 RMK AO2 SLP192 T10391094
KOMA 010552Z 15007KT 10SM CLR M05/M09 A3008 RMK AO2 SLP197 T10501094 11011 21056 400441094 58009
KOMA 010452Z 15006KT 10SM CLR M04/M09 A3009 RMK AO2 SLP202 T10391089
KOMA 010352Z 15003KT 10SM CLR M03/M09 A3010 RMK AO2 SLP204 T10331089